sensor_id;sensor_type;location;lat;lon;timestamp;P1;durP1;ratioP1;P2;durP2;ratioP2
37877;SDS011;23715;53.652;8.516;2022-09-17T00:03:16;33.48;;;29.77;;
37877;SDS011;23715;53.652;8.516;2022-09-17T00:08:16;34.03;;;29.32;;
37877;SDS011;23715;53.652;8.516;2022-09-17T00:13:17;30.92;;;26.45;;
37877;SDS011;23715;53.652;8.516;2022-09-17T00:23:17;36.95;;;26.73;;
37877;SDS011;23715;53.652;8.516;2022-09-17T00:28:17;35.25;;;31.57;;
37877;SDS011;23715;53.652;8.516;2022-09-17T00:38:18;40.05;;;31.05;;
37877;SDS011;23715;53.652;8.516;2022-09-17T00:43:54;36.45;;;29.40;;
37877;SDS011;23715;53.652;8.516;2022-09-17T00:48:30;37.60;;;29.67;;
37877;SDS011;23715;53.652;8.516;2022-09-17T00:53:30;36.48;;;29.70;;
37877;SDS011;23715;53.652;8.516;2022-09-17T00:58:31;55.50;;;34.98;;
37877;SDS011;23715;53.652;8.516;2022-09-17T01:03:34;43.57;;;31.60;;
37877;SDS011;23715;53.652;8.516;2022-09-17T01:08:48;43.50;;;34.05;;
37877;SDS011;23715;53.652;8.516;2022-09-17T01:14:17;45.52;;;29.37;;
37877;SDS011;23715;53.652;8.516;2022-09-17T01:24:57;31.12;;;28.00;;
37877;SDS011;23715;53.652;8.516;2022-09-17T01:30:18;34.80;;;28.87;;
37877;SDS011;23715;53.652;8.516;2022-09-17T01:35:39;34.85;;;31.27;;
37877;SDS011;23715;53.652;8.516;2022-09-17T01:46:12;31.15;;;28.55;;
37877;SDS011;23715;53.652;8.516;2022-09-17T01:51:23;31.17;;;27.90;;
37877;SDS011;23715;53.652;8.516;2022-09-17T01:56:32;29.52;;;26.42;;
37877;SDS011;23715;53.652;8.516;2022-09-17T02:01:34;34.15;;;29.67;;
37877;SDS011;23715;53.652;8.516;2022-09-17T02:06:37;35.10;;;30.30;;
37877;SDS011;23715;53.652;8.516;2022-09-17T02:11:40;32.78;;;29.30;;
37877;SDS011;23715;53.652;8.516;2022-09-17T02:16:44;32.35;;;27.98;;
37877;SDS011;23715;53.652;8.516;2022-09-17T02:21:48;30.27;;;26.68;;
37877;SDS011;23715;53.652;8.516;2022-09-17T02:27:06;29.80;;;26.82;;
37877;SDS011;23715;53.652;8.516;2022-09-17T02:32:12;31.95;;;27.62;;
37877;SDS011;23715;53.652;8.516;2022-09-17T02:37:13;29.05;;;26.40;;
37877;SDS011;23715;53.652;8.516;2022-09-17T02:42:20;34.30;;;31.12;;
37877;SDS011;23715;53.652;8.516;2022-09-17T02:57:59;42.30;;;30.43;;
37877;SDS011;23715;53.652;8.516;2022-09-17T03:03:07;39.20;;;32.23;;
37877;SDS011;23715;53.652;8.516;2022-09-17T03:08:17;36.65;;;29.87;;
37877;SDS011;23715;53.652;8.516;2022-09-17T03:13:18;29.45;;;26.93;;
37877;SDS011;23715;53.652;8.516;2022-09-17T03:18:18;35.43;;;30.62;;
37877;SDS011;23715;53.652;8.516;2022-09-17T03:28:23;29.07;;;26.52;;
37877;SDS011;23715;53.652;8.516;2022-09-17T03:33:24;26.95;;;24.15;;
37877;SDS011;23715;53.652;8.516;2022-09-17T03:38:25;29.43;;;26.80;;
37877;SDS011;23715;53.652;8.516;2022-09-17T03:43:26;29.92;;;25.15;;
37877;SDS011;23715;53.652;8.516;2022-09-17T03:53:27;33.20;;;29.63;;
37877;SDS011;23715;53.652;8.516;2022-09-17T03:58:28;34.60;;;31.07;;
37877;SDS011;23715;53.652;8.516;2022-09-17T04:03:29;33.78;;;29.27;;
37877;SDS011;23715;53.652;8.516;2022-09-17T04:08:30;29.10;;;26.15;;
37877;SDS011;23715;53.652;8.516;2022-09-17T04:13:31;30.40;;;25.72;;
37877;SDS011;23715;53.652;8.516;2022-09-17T04:18:31;24.67;;;22.20;;
37877;SDS011;23715;53.652;8.516;2022-09-17T04:23:32;28.73;;;25.80;;
37877;SDS011;23715;53.652;8.516;2022-09-17T04:28:32;31.27;;;28.30;;
37877;SDS011;23715;53.652;8.516;2022-09-17T04:33:33;26.42;;;23.67;;
37877;SDS011;23715;53.652;8.516;2022-09-17T04:38:34;25.60;;;23.27;;
37877;SDS011;23715;53.652;8.516;2022-09-17T04:48:35;35.10;;;26.43;;
37877;SDS011;23715;53.652;8.516;2022-09-17T04:53:36;31.90;;;28.35;;
37877;SDS011;23715;53.652;8.516;2022-09-17T04:58:36;33.95;;;30.45;;
37877;SDS011;23715;53.652;8.516;2022-09-17T05:03:38;35.30;;;31.85;;
37877;SDS011;23715;53.652;8.516;2022-09-17T05:08:38;35.70;;;32.00;;
37877;SDS011;23715;53.652;8.516;2022-09-17T05:18:38;29.95;;;26.85;;
37877;SDS011;23715;53.652;8.516;2022-09-17T05:28:38;27.07;;;24.75;;
37877;SDS011;23715;53.652;8.516;2022-09-17T05:33:40;27.82;;;25.10;;
37877;SDS011;23715;53.652;8.516;2022-09-17T05:38:40;27.62;;;24.05;;
37877;SDS011;23715;53.652;8.516;2022-09-17T05:43:46;30.43;;;27.07;;
37877;SDS011;23715;53.652;8.516;2022-09-17T05:48:43;28.93;;;26.43;;
37877;SDS011;23715;53.652;8.516;2022-09-17T05:53:43;29.07;;;26.00;;
37877;SDS011;23715;53.652;8.516;2022-09-17T05:58:43;30.97;;;28.20;;
37877;SDS011;23715;53.652;8.516;2022-09-17T06:03:44;33.63;;;28.25;;
37877;SDS011;23715;53.652;8.516;2022-09-17T06:13:44;31.23;;;25.82;;
37877;SDS011;23715;53.652;8.516;2022-09-17T06:18:44;31.02;;;27.75;;
37877;SDS011;23715;53.652;8.516;2022-09-17T06:23:45;30.30;;;27.35;;
37877;SDS011;23715;53.652;8.516;2022-09-17T06:28:45;30.55;;;27.80;;
37877;SDS011;23715;53.652;8.516;2022-09-17T06:33:45;31.05;;;27.58;;
37877;SDS011;23715;53.652;8.516;2022-09-17T06:38:46;37.50;;;26.42;;
37877;SDS011;23715;53.652;8.516;2022-09-17T06:48:46;28.45;;;25.48;;
37877;SDS011;23715;53.652;8.516;2022-09-17T06:58:47;28.30;;;25.52;;
37877;SDS011;23715;53.652;8.516;2022-09-17T07:03:47;26.90;;;24.63;;
37877;SDS011;23715;53.652;8.516;2022-09-17T07:08:47;27.07;;;24.75;;
37877;SDS011;23715;53.652;8.516;2022-09-17T07:13:48;26.05;;;23.98;;
37877;SDS011;23715;53.652;8.516;2022-09-17T07:18:48;27.17;;;25.20;;
37877;SDS011;23715;53.652;8.516;2022-09-17T07:23:49;30.32;;;27.60;;
37877;SDS011;23715;53.652;8.516;2022-09-17T07:28:50;28.25;;;26.00;;
37877;SDS011;23715;53.652;8.516;2022-09-17T07:38:50;24.85;;;22.52;;
37877;SDS011;23715;53.652;8.516;2022-09-17T07:43:51;25.12;;;23.07;;
37877;SDS011;23715;53.652;8.516;2022-09-17T07:48:52;22.55;;;21.12;;
37877;SDS011;23715;53.652;8.516;2022-09-17T07:53:53;22.37;;;20.77;;
37877;SDS011;23715;53.652;8.516;2022-09-17T07:58:56;25.32;;;23.50;;
37877;SDS011;23715;53.652;8.516;2022-09-17T08:03:57;30.17;;;27.00;;
37877;SDS011;23715;53.652;8.516;2022-09-17T08:08:58;32.63;;;27.27;;
37877;SDS011;23715;53.652;8.516;2022-09-17T08:13:59;26.55;;;24.05;;
37877;SDS011;23715;53.652;8.516;2022-09-17T08:18:59;29.60;;;25.02;;
37877;SDS011;23715;53.652;8.516;2022-09-17T08:24:02;30.57;;;23.00;;
37877;SDS011;23715;53.652;8.516;2022-09-17T08:29:05;26.85;;;24.40;;
37877;SDS011;23715;53.652;8.516;2022-09-17T08:34:06;27.87;;;25.25;;
37877;SDS011;23715;53.652;8.516;2022-09-17T08:39:07;24.10;;;22.43;;
37877;SDS011;23715;53.652;8.516;2022-09-17T08:49:38;28.30;;;25.45;;
37877;SDS011;23715;53.652;8.516;2022-09-17T08:54:47;25.48;;;23.42;;
37877;SDS011;23715;53.652;8.516;2022-09-17T09:00:03;26.62;;;24.27;;
37877;SDS011;23715;53.652;8.516;2022-09-17T09:05:16;30.02;;;27.35;;
37877;SDS011;23715;53.652;8.516;2022-09-17T09:10:27;30.10;;;27.05;;
37877;SDS011;23715;53.652;8.516;2022-09-17T09:15:32;33.35;;;27.98;;
37877;SDS011;23715;53.652;8.516;2022-09-17T09:20:53;41.08;;;30.10;;
37877;SDS011;23715;53.652;8.516;2022-09-17T09:26:04;38.85;;;28.30;;
37877;SDS011;23715;53.652;8.516;2022-09-17T09:36:37;50.38;;;32.15;;
37877;SDS011;23715;53.652;8.516;2022-09-17T09:47:03;47.67;;;30.13;;
37877;SDS011;23715;53.652;8.516;2022-09-17T09:57:23;52.13;;;46.28;;
37877;SDS011;23715;53.652;8.516;2022-09-17T10:02:39;30.10;;;27.82;;
37877;SDS011;23715;53.652;8.516;2022-09-17T10:07:43;32.67;;;29.35;;
37877;SDS011;23715;53.652;8.516;2022-09-17T10:12:44;37.33;;;33.37;;
37877;SDS011;23715;53.652;8.516;2022-09-17T10:17:44;50.60;;;33.78;;
37877;SDS011;23715;53.652;8.516;2022-09-17T10:22:45;40.25;;;30.92;;
37877;SDS011;23715;53.652;8.516;2022-09-17T10:27:47;35.78;;;32.58;;
37877;SDS011;23715;53.652;8.516;2022-09-17T10:38:49;44.48;;;28.32;;
37877;SDS011;23715;53.652;8.516;2022-09-17T10:43:27;33.63;;;26.90;;
37877;SDS011;23715;53.652;8.516;2022-09-17T10:48:29;44.90;;;27.70;;
37877;SDS011;23715;53.652;8.516;2022-09-17T10:53:34;32.78;;;22.30;;
37877;SDS011;23715;53.652;8.516;2022-09-17T11:09:43;35.17;;;25.72;;
37877;SDS011;23715;53.652;8.516;2022-09-17T11:14:53;32.78;;;25.60;;
37877;SDS011;23715;53.652;8.516;2022-09-17T11:30:18;38.53;;;26.00;;
37877;SDS011;23715;53.652;8.516;2022-09-17T11:35:39;37.00;;;28.25;;
37877;SDS011;23715;53.652;8.516;2022-09-17T11:40:44;25.72;;;23.05;;
37877;SDS011;23715;53.652;8.516;2022-09-17T11:51:22;38.80;;;27.02;;
37877;SDS011;23715;53.652;8.516;2022-09-17T11:56:37;39.27;;;26.40;;
37877;SDS011;23715;53.652;8.516;2022-09-17T12:02:02;37.78;;;25.10;;
37877;SDS011;23715;53.652;8.516;2022-09-17T12:17:00;35.50;;;25.77;;
37877;SDS011;23715;53.652;8.516;2022-09-17T12:22:13;32.13;;;22.77;;
37877;SDS011;23715;53.652;8.516;2022-09-17T12:48:46;40.45;;;29.00;;
37877;SDS011;23715;53.652;8.516;2022-09-17T12:59:09;48.33;;;36.77;;
37877;SDS011;23715;53.652;8.516;2022-09-17T13:20:37;50.40;;;45.33;;
37877;SDS011;23715;53.652;8.516;2022-09-17T13:25:41;56.18;;;44.23;;
37877;SDS011;23715;53.652;8.516;2022-09-17T13:31:00;55.85;;;49.83;;
37877;SDS011;23715;53.652;8.516;2022-09-17T13:35:57;58.70;;;49.50;;
37877;SDS011;23715;53.652;8.516;2022-09-17T13:46:15;43.98;;;39.40;;
37877;SDS011;23715;53.652;8.516;2022-09-17T14:01:57;43.10;;;33.43;;
37877;SDS011;23715;53.652;8.516;2022-09-17T14:07:25;39.78;;;32.80;;
37877;SDS011;23715;53.652;8.516;2022-09-17T14:17:47;38.98;;;33.98;;
37877;SDS011;23715;53.652;8.516;2022-09-17T14:23:01;35.68;;;31.90;;
37877;SDS011;23715;53.652;8.516;2022-09-17T14:27:58;34.35;;;28.85;;
37877;SDS011;23715;53.652;8.516;2022-09-17T14:33:12;37.37;;;33.63;;
37877;SDS011;23715;53.652;8.516;2022-09-17T14:38:28;39.00;;;34.88;;
37877;SDS011;23715;53.652;8.516;2022-09-17T14:48:45;37.63;;;33.73;;
37877;SDS011;23715;53.652;8.516;2022-09-17T14:53:46;43.08;;;38.08;;
37877;SDS011;23715;53.652;8.516;2022-09-17T14:58:51;42.90;;;38.37;;
37877;SDS011;23715;53.652;8.516;2022-09-17T15:09:15;47.58;;;42.30;;
37877;SDS011;23715;53.652;8.516;2022-09-17T15:14:21;42.23;;;38.23;;
37877;SDS011;23715;53.652;8.516;2022-09-17T15:19:28;50.33;;;45.17;;
37877;SDS011;23715;53.652;8.516;2022-09-17T15:24:45;45.00;;;41.18;;
37877;SDS011;23715;53.652;8.516;2022-09-17T15:29:53;44.42;;;39.63;;
37877;SDS011;23715;53.652;8.516;2022-09-17T15:40:14;44.75;;;32.33;;
37877;SDS011;23715;53.652;8.516;2022-09-17T15:45:20;34.75;;;30.45;;
37877;SDS011;23715;53.652;8.516;2022-09-17T15:50:28;32.60;;;29.45;;
37877;SDS011;23715;53.652;8.516;2022-09-17T15:55:41;35.20;;;31.82;;
37877;SDS011;23715;53.652;8.516;2022-09-17T16:00:45;34.03;;;28.57;;
37877;SDS011;23715;53.652;8.516;2022-09-17T16:05:46;36.05;;;29.52;;
37877;SDS011;23715;53.652;8.516;2022-09-17T16:10:46;43.90;;;30.80;;
37877;SDS011;23715;53.652;8.516;2022-09-17T16:15:47;43.07;;;31.33;;
37877;SDS011;23715;53.652;8.516;2022-09-17T16:20:47;41.40;;;32.23;;
37877;SDS011;23715;53.652;8.516;2022-09-17T16:25:48;33.23;;;27.93;;
37877;SDS011;23715;53.652;8.516;2022-09-17T16:30:49;29.63;;;25.10;;
37877;SDS011;23715;53.652;8.516;2022-09-17T16:35:50;34.55;;;25.02;;
37877;SDS011;23715;53.652;8.516;2022-09-17T16:40:50;28.98;;;22.20;;
37877;SDS011;23715;53.652;8.516;2022-09-17T16:45:58;29.77;;;22.10;;
37877;SDS011;23715;53.652;8.516;2022-09-17T16:51:09;37.33;;;26.40;;
37877;SDS011;23715;53.652;8.516;2022-09-17T16:56:11;30.10;;;24.40;;
37877;SDS011;23715;53.652;8.516;2022-09-17T17:01:14;27.40;;;24.80;;
37877;SDS011;23715;53.652;8.516;2022-09-17T17:06:15;25.82;;;22.98;;
37877;SDS011;23715;53.652;8.516;2022-09-17T17:11:16;27.95;;;24.45;;
37877;SDS011;23715;53.652;8.516;2022-09-17T17:16:17;29.48;;;26.10;;
37877;SDS011;23715;53.652;8.516;2022-09-17T17:21:17;26.95;;;24.45;;
37877;SDS011;23715;53.652;8.516;2022-09-17T17:26:18;32.53;;;29.45;;
37877;SDS011;23715;53.652;8.516;2022-09-17T17:36:18;39.80;;;29.85;;
37877;SDS011;23715;53.652;8.516;2022-09-17T17:41:19;30.68;;;27.48;;
37877;SDS011;23715;53.652;8.516;2022-09-17T17:46:20;28.05;;;25.05;;
37877;SDS011;23715;53.652;8.516;2022-09-17T17:51:21;32.63;;;29.20;;
37877;SDS011;23715;53.652;8.516;2022-09-17T18:01:23;33.02;;;29.95;;
37877;SDS011;23715;53.652;8.516;2022-09-17T18:06:26;31.10;;;27.85;;
37877;SDS011;23715;53.652;8.516;2022-09-17T18:11:27;29.45;;;26.45;;
37877;SDS011;23715;53.652;8.516;2022-09-17T18:16:28;27.87;;;24.98;;
37877;SDS011;23715;53.652;8.516;2022-09-17T18:21:28;31.25;;;28.23;;
37877;SDS011;23715;53.652;8.516;2022-09-17T18:26:29;36.03;;;30.97;;
37877;SDS011;23715;53.652;8.516;2022-09-17T18:31:30;33.45;;;30.15;;
37877;SDS011;23715;53.652;8.516;2022-09-17T18:36:33;33.63;;;30.48;;
37877;SDS011;23715;53.652;8.516;2022-09-17T18:41:35;33.42;;;28.75;;
37877;SDS011;23715;53.652;8.516;2022-09-17T18:46:38;33.60;;;28.70;;
37877;SDS011;23715;53.652;8.516;2022-09-17T18:51:39;31.93;;;28.83;;
37877;SDS011;23715;53.652;8.516;2022-09-17T19:01:39;35.00;;;28.00;;
37877;SDS011;23715;53.652;8.516;2022-09-17T19:06:40;31.95;;;27.42;;
37877;SDS011;23715;53.652;8.516;2022-09-17T19:11:40;37.48;;;29.92;;
37877;SDS011;23715;53.652;8.516;2022-09-17T19:16:40;32.28;;;29.18;;
37877;SDS011;23715;53.652;8.516;2022-09-17T19:21:40;32.85;;;29.55;;
37877;SDS011;23715;53.652;8.516;2022-09-17T19:26:41;29.70;;;26.77;;
37877;SDS011;23715;53.652;8.516;2022-09-17T19:36:41;30.30;;;27.13;;
37877;SDS011;23715;53.652;8.516;2022-09-17T19:41:41;27.45;;;24.70;;
37877;SDS011;23715;53.652;8.516;2022-09-17T19:46:42;25.30;;;22.67;;
37877;SDS011;23715;53.652;8.516;2022-09-17T19:51:43;32.55;;;21.93;;
37877;SDS011;23715;53.652;8.516;2022-09-17T19:56:44;24.43;;;20.80;;
37877;SDS011;23715;53.652;8.516;2022-09-17T20:01:44;20.80;;;18.80;;
37877;SDS011;23715;53.652;8.516;2022-09-17T20:06:45;25.70;;;23.20;;
37877;SDS011;23715;53.652;8.516;2022-09-17T20:11:45;34.88;;;26.90;;
37877;SDS011;23715;53.652;8.516;2022-09-17T20:16:46;28.23;;;25.37;;
37877;SDS011;23715;53.652;8.516;2022-09-17T20:26:45;27.35;;;25.32;;
37877;SDS011;23715;53.652;8.516;2022-09-17T20:36:45;29.23;;;26.50;;
37877;SDS011;23715;53.652;8.516;2022-09-17T20:41:46;29.70;;;26.85;;
37877;SDS011;23715;53.652;8.516;2022-09-17T20:51:47;27.70;;;24.87;;
37877;SDS011;23715;53.652;8.516;2022-09-17T20:56:47;26.45;;;23.73;;
37877;SDS011;23715;53.652;8.516;2022-09-17T21:01:47;26.20;;;23.57;;
37877;SDS011;23715;53.652;8.516;2022-09-17T21:11:51;28.98;;;23.20;;
37877;SDS011;23715;53.652;8.516;2022-09-17T21:16:53;31.17;;;24.20;;
37877;SDS011;23715;53.652;8.516;2022-09-17T21:21:53;29.00;;;26.20;;
37877;SDS011;23715;53.652;8.516;2022-09-17T21:26:54;28.73;;;25.32;;
37877;SDS011;23715;53.652;8.516;2022-09-17T21:31:54;30.65;;;24.50;;
37877;SDS011;23715;53.652;8.516;2022-09-17T21:36:54;22.25;;;20.23;;
37877;SDS011;23715;53.652;8.516;2022-09-17T21:46:55;25.43;;;20.33;;
37877;SDS011;23715;53.652;8.516;2022-09-17T21:51:55;27.25;;;23.95;;
37877;SDS011;23715;53.652;8.516;2022-09-17T21:56:55;21.87;;;19.77;;
37877;SDS011;23715;53.652;8.516;2022-09-17T22:01:57;22.85;;;18.92;;
37877;SDS011;23715;53.652;8.516;2022-09-17T22:06:57;28.83;;;18.85;;
37877;SDS011;23715;53.652;8.516;2022-09-17T22:11:58;24.05;;;19.40;;
37877;SDS011;23715;53.652;8.516;2022-09-17T22:16:59;24.92;;;21.87;;
37877;SDS011;23715;53.652;8.516;2022-09-17T22:26:59;26.45;;;23.95;;
37877;SDS011;23715;53.652;8.516;2022-09-17T22:31:59;34.05;;;26.48;;
37877;SDS011;23715;53.652;8.516;2022-09-17T22:36:59;31.02;;;26.00;;
37877;SDS011;23715;53.652;8.516;2022-09-17T22:42:00;29.85;;;26.17;;
37877;SDS011;23715;53.652;8.516;2022-09-17T22:47:01;27.07;;;24.50;;
37877;SDS011;23715;53.652;8.516;2022-09-17T22:57:01;27.05;;;23.12;;
37877;SDS011;23715;53.652;8.516;2022-09-17T23:02:02;24.33;;;21.93;;
37877;SDS011;23715;53.652;8.516;2022-09-17T23:12:02;28.55;;;25.62;;
37877;SDS011;23715;53.652;8.516;2022-09-17T23:17:03;28.50;;;25.80;;
37877;SDS011;23715;53.652;8.516;2022-09-17T23:22:03;30.52;;;27.25;;
37877;SDS011;23715;53.652;8.516;2022-09-17T23:27:03;33.25;;;30.02;;
37877;SDS011;23715;53.652;8.516;2022-09-17T23:32:04;31.27;;;28.17;;
37877;SDS011;23715;53.652;8.516;2022-09-17T23:42:04;28.17;;;24.80;;
37877;SDS011;23715;53.652;8.516;2022-09-17T23:47:04;27.93;;;24.87;;
37877;SDS011;23715;53.652;8.516;2022-09-17T23:52:05;26.35;;;23.60;;
